Time;durP1;ratioP1;P1;durP2;ratioP2;P2;SDS_P1;SDS_P2;PMS_P1;PMS_P2;Temp;Humidity;BMP_temperature;BMP_pressure;BME280_temperature;BME280_humidity;BME280_pressure;Samples;Min_cycle;Max_cycle;Signal;HPM_P1;HPM_P2
2023/08/20 00:01:46;;;;;;;9.32;5.07;;;;;;;;;;5021375;28;20044;-80
2023/08/20 00:04:13;;;;;;;15.00;6.95;;;;;;;;;;5005286;28;20037;-79
2023/08/20 00:06:39;;;;;;;12.13;5.82;;;;;;;;;;5037120;28;20123;-80
2023/08/20 00:09:07;;;;;;;7.07;6.00;;;;;;;;;;5021396;28;20089;-80
2023/08/20 00:11:33;;;;;;;11.30;6.90;;;;;;;;;;5021248;28;20084;-79
2023/08/20 00:14:00;;;;;;;10.13;6.25;;;;;;;;;;5055091;28;20047;-79
2023/08/20 00:16:26;;;;;;;10.50;6.10;;;;;;;;;;5037431;28;20138;-80
2023/08/20 00:18:52;;;;;;;14.48;6.40;;;;;;;;;;5020990;28;20076;-80
2023/08/20 00:21:18;;;;;;;12.90;6.57;;;;;;;;;;5004428;28;20056;-80
2023/08/20 00:23:44;;;;;;;12.60;7.13;;;;;;;;;;5020924;28;20090;-79
2023/08/20 00:26:11;;;;;;;12.45;6.53;;;;;;;;;;5036903;28;20069;-79
2023/08/20 00:28:38;;;;;;;10.57;6.78;;;;;;;;;;5037176;28;20130;-79
2023/08/20 00:31:04;;;;;;;16.48;6.70;;;;;;;;;;5020743;28;20128;-80
2023/08/20 00:33:32;;;;;;;12.52;7.95;;;;;;;;;;5037164;28;20060;-80
2023/08/20 00:35:58;;;;;;;13.02;7.20;;;;;;;;;;5037059;28;20123;-80
2023/08/20 00:38:24;;;;;;;11.82;7.35;;;;;;;;;;5036411;28;20477;-79
2023/08/20 00:40:50;;;;;;;12.98;6.68;;;;;;;;;;5037073;28;20102;-79
2023/08/20 00:43:16;;;;;;;17.17;7.95;;;;;;;;;;5036702;28;20128;-80
2023/08/20 00:45:42;;;;;;;10.38;6.72;;;;;;;;;;5037064;28;20041;-79
2023/08/20 00:48:09;;;;;;;11.02;7.70;;;;;;;;;;5037359;28;20151;-80
2023/08/20 00:50:35;;;;;;;14.75;6.43;;;;;;;;;;5036869;28;20131;-80
2023/08/20 00:53:02;;;;;;;11.27;6.20;;;;;;;;;;5054362;28;20049;-79
2023/08/20 00:55:28;;;;;;;13.02;7.78;;;;;;;;;;5036641;28;20170;-79
2023/08/20 00:57:55;;;;;;;10.38;6.63;;;;;;;;;;5036606;28;20064;-80
2023/08/20 01:00:21;;;;;;;10.63;5.90;;;;;;;;;;5016560;28;20049;-80
2023/08/20 01:02:47;;;;;;;10.18;6.50;;;;;;;;;;5033745;28;20111;-79
2023/08/20 01:05:13;;;;;;;13.82;7.63;;;;;;;;;;5032965;28;20037;-79
2023/08/20 01:07:43;;;;;;;9.05;6.75;;;;;;;;;;5032637;28;20045;-80
2023/08/20 01:10:17;;;;;;;10.40;6.50;;;;;;;;;;5033149;28;20150;-80
2023/08/20 01:12:44;;;;;;;14.38;8.48;;;;;;;;;;5033175;28;20041;-80
2023/08/20 01:15:13;;;;;;;12.45;6.55;;;;;;;;;;5032952;28;20067;-80
2023/08/20 01:17:40;;;;;;;7.53;6.60;;;;;;;;;;5033076;28;20048;-79
2023/08/20 01:20:07;;;;;;;7.28;6.43;;;;;;;;;;5032977;28;20132;-79
2023/08/20 01:22:53;;;;;;;18.88;10.02;;;;;;;;;;5033151;28;20095;-79
2023/08/20 01:25:32;;;;;;;14.88;9.15;;;;;;;;;;5032234;28;20127;-79
2023/08/20 01:28:18;;;;;;;7.30;5.88;;;;;;;;;;5032872;28;20045;-79
2023/08/20 01:30:45;;;;;;;10.57;5.95;;;;;;;;;;5019468;28;20381;-80
2023/08/20 01:33:15;;;;;;;9.98;7.18;;;;;;;;;;5031951;28;20574;-79
2023/08/20 01:35:41;;;;;;;9.93;6.20;;;;;;;;;;5032829;28;20099;-79
2023/08/20 01:38:07;;;;;;;8.15;5.78;;;;;;;;;;5032758;28;20038;-79
2023/08/20 01:40:34;;;;;;;11.25;6.63;;;;;;;;;;5032789;28;20111;-79
2023/08/20 01:43:00;;;;;;;9.93;6.38;;;;;;;;;;5032797;28;20041;-80
2023/08/20 01:45:26;;;;;;;10.25;7.22;;;;;;;;;;5032305;28;20037;-79
2023/08/20 01:47:52;;;;;;;13.43;7.00;;;;;;;;;;5032507;28;20504;-79
2023/08/20 01:50:18;;;;;;;8.13;5.93;;;;;;;;;;5032371;28;20044;-79
2023/08/20 01:52:45;;;;;;;7.97;5.93;;;;;;;;;;5032568;28;20488;-79
2023/08/20 01:55:12;;;;;;;9.88;6.70;;;;;;;;;;5032966;28;20382;-79
2023/08/20 01:57:38;;;;;;;16.88;7.10;;;;;;;;;;5032882;28;20042;-79
2023/08/20 02:00:08;;;;;;;10.15;6.78;;;;;;;;;;5032371;28;20104;-79
2023/08/20 02:02:34;;;;;;;9.30;6.63;;;;;;;;;;5032338;28;20049;-80
2023/08/20 02:05:00;;;;;;;7.03;6.28;;;;;;;;;;5032014;28;20092;-80
2023/08/20 02:07:26;;;;;;;9.88;6.18;;;;;;;;;;5031886;28;20042;-79
2023/08/20 02:09:52;;;;;;;11.38;8.52;;;;;;;;;;5016279;28;20350;-79
2023/08/20 02:12:18;;;;;;;10.88;6.65;;;;;;;;;;5032727;28;20053;-80
2023/08/20 02:14:45;;;;;;;8.63;6.78;;;;;;;;;;5032308;28;20072;-80
2023/08/20 02:17:12;;;;;;;8.05;7.18;;;;;;;;;;5032415;28;20358;-80
2023/08/20 02:19:38;;;;;;;8.20;6.70;;;;;;;;;;5032182;28;20056;-80
2023/08/20 02:22:04;;;;;;;8.60;7.68;;;;;;;;;;5032377;28;20056;-80
2023/08/20 02:24:30;;;;;;;12.98;8.00;;;;;;;;;;5032169;28;20091;-80
2023/08/20 02:26:57;;;;;;;7.72;6.25;;;;;;;;;;4999722;28;20145;-79
2023/08/20 02:29:23;;;;;;;9.65;7.25;;;;;;;;;;5032342;28;20049;-79
2023/08/20 02:31:49;;;;;;;10.10;7.53;;;;;;;;;;5032060;28;20132;-80
2023/08/20 02:34:15;;;;;;;13.57;9.15;;;;;;;;;;5032881;28;20103;-80
2023/08/20 02:36:41;;;;;;;13.60;9.50;;;;;;;;;;5032275;28;20044;-79
2023/08/20 02:39:07;;;;;;;17.98;10.20;;;;;;;;;;5031740;28;20041;-80
2023/08/20 02:41:36;;;;;;;11.73;10.32;;;;;;;;;;5032261;28;20056;-80
2023/08/20 02:44:06;;;;;;;14.35;10.10;;;;;;;;;;5033531;28;20477;-79
2023/08/20 02:46:32;;;;;;;17.38;13.93;;;;;;;;;;5035752;28;20072;-80
2023/08/20 02:48:58;;;;;;;21.20;14.82;;;;;;;;;;5035905;28;20045;-79
2023/08/20 02:51:24;;;;;;;15.15;11.25;;;;;;;;;;5036885;28;20182;-79
2023/08/20 02:53:50;;;;;;;12.90;10.52;;;;;;;;;;5035601;28;20060;-79
2023/08/20 02:56:16;;;;;;;16.52;11.50;;;;;;;;;;5035958;28;20424;-79
2023/08/20 02:58:42;;;;;;;14.77;12.32;;;;;;;;;;5035657;28;20045;-79
2023/08/20 03:01:17;;;;;;;16.20;11.77;;;;;;;;;;5035001;28;20057;-79
2023/08/20 03:03:43;;;;;;;21.75;12.52;;;;;;;;;;5036181;28;20045;-80
2023/08/20 03:06:09;;;;;;;17.83;12.75;;;;;;;;;;5035322;28;20049;-79
2023/08/20 03:08:35;;;;;;;20.23;12.57;;;;;;;;;;5036214;28;20128;-79
2023/08/20 03:11:02;;;;;;;15.70;12.82;;;;;;;;;;5036369;28;20049;-80
2023/08/20 03:13:28;;;;;;;17.90;13.93;;;;;;;;;;5035406;28;20049;-80
2023/08/20 03:15:54;;;;;;;18.30;13.32;;;;;;;;;;5035657;28;20092;-79
2023/08/20 03:18:20;;;;;;;18.83;13.88;;;;;;;;;;5035748;28;20049;-79
2023/08/20 03:20:46;;;;;;;14.05;11.60;;;;;;;;;;5035023;28;20056;-79
2023/08/20 03:23:12;;;;;;;17.38;12.68;;;;;;;;;;5036225;28;20045;-79
2023/08/20 03:25:38;;;;;;;15.23;12.63;;;;;;;;;;5034706;28;20049;-79
2023/08/20 03:28:05;;;;;;;19.52;13.45;;;;;;;;;;5035015;28;20124;-79
2023/08/20 03:30:31;;;;;;;21.83;14.15;;;;;;;;;;5035976;28;20053;-80
2023/08/20 03:32:57;;;;;;;21.02;15.70;;;;;;;;;;5036191;28;20049;-79
2023/08/20 03:35:23;;;;;;;18.17;15.40;;;;;;;;;;5035166;28;20132;-79
2023/08/20 03:37:49;;;;;;;18.90;13.57;;;;;;;;;;5034484;28;20469;-80
2023/08/20 03:40:15;;;;;;;18.55;14.27;;;;;;;;;;5034864;28;20048;-79
2023/08/20 03:42:41;;;;;;;15.85;13.18;;;;;;;;;;5034817;28;20045;-79
2023/08/20 03:45:08;;;;;;;16.55;14.68;;;;;;;;;;5034609;28;20041;-79
2023/08/20 03:47:36;;;;;;;19.42;15.35;;;;;;;;;;5034825;28;20124;-79
2023/08/20 03:50:02;;;;;;;17.05;13.60;;;;;;;;;;5035239;28;20117;-79
2023/08/20 03:52:28;;;;;;;15.60;13.60;;;;;;;;;;5034630;28;20132;-79
2023/08/20 03:54:54;;;;;;;14.98;13.57;;;;;;;;;;5034156;28;20393;-79
2023/08/20 03:57:21;;;;;;;14.73;13.20;;;;;;;;;;5034551;28;20048;-79
2023/08/20 03:59:47;;;;;;;19.95;16.02;;;;;;;;;;5034436;28;20057;-79
2023/08/20 04:02:13;;;;;;;18.45;14.35;;;;;;;;;;5035329;28;20355;-79
2023/08/20 04:04:39;;;;;;;13.93;12.63;;;;;;;;;;5034308;28;20043;-79
2023/08/20 04:07:05;;;;;;;18.90;13.02;;;;;;;;;;5034297;28;20052;-79
2023/08/20 04:09:32;;;;;;;15.18;13.57;;;;;;;;;;5034185;28;20485;-79
2023/08/20 04:11:58;;;;;;;16.88;15.18;;;;;;;;;;5034265;28;20045;-79
2023/08/20 04:14:25;;;;;;;17.40;14.77;;;;;;;;;;5034356;28;20053;-79
2023/08/20 04:16:51;;;;;;;16.45;14.07;;;;;;;;;;5034254;28;20046;-80
2023/08/20 04:19:17;;;;;;;16.83;13.63;;;;;;;;;;5017965;28;20124;-79
2023/08/20 04:21:43;;;;;;;20.08;14.27;;;;;;;;;;5034211;28;20045;-80
2023/08/20 04:24:09;;;;;;;16.88;14.75;;;;;;;;;;5033855;28;20033;-79
2023/08/20 04:26:35;;;;;;;17.38;15.55;;;;;;;;;;5033948;28;20045;-79
2023/08/20 04:29:01;;;;;;;20.75;16.25;;;;;;;;;;5034030;28;20041;-79
2023/08/20 04:31:27;;;;;;;22.70;16.27;;;;;;;;;;5033765;28;20080;-79
2023/08/20 04:33:53;;;;;;;17.92;15.82;;;;;;;;;;5017631;28;20037;-79
2023/08/20 04:36:19;;;;;;;16.52;14.35;;;;;;;;;;5033980;28;20057;-79
2023/08/20 04:38:45;;;;;;;16.58;14.70;;;;;;;;;;5033429;28;20037;-79
2023/08/20 04:41:11;;;;;;;19.00;15.38;;;;;;;;;;5033627;28;20041;-79
2023/08/20 04:43:37;;;;;;;20.20;16.00;;;;;;;;;;5033902;28;20489;-79
2023/08/20 04:46:03;;;;;;;21.60;14.45;;;;;;;;;;5017602;28;20041;-80
2023/08/20 04:48:30;;;;;;;18.05;16.13;;;;;;;;;;5033565;28;20488;-79
2023/08/20 04:50:56;;;;;;;18.58;14.48;;;;;;;;;;5017499;28;20041;-79
2023/08/20 04:53:22;;;;;;;23.08;15.88;;;;;;;;;;5034215;28;20081;-79
2023/08/20 04:55:48;;;;;;;21.40;14.30;;;;;;;;;;5034295;28;20057;-79
2023/08/20 04:58:14;;;;;;;19.15;14.80;;;;;;;;;;5034511;28;20049;-79
2023/08/20 05:00:40;;;;;;;19.45;13.70;;;;;;;;;;5033292;28;20053;-79
2023/08/20 05:03:06;;;;;;;20.15;15.43;;;;;;;;;;5033503;28;20053;-79
2023/08/20 05:05:32;;;;;;;20.25;13.50;;;;;;;;;;5033026;28;20045;-79
2023/08/20 05:07:58;;;;;;;15.75;13.80;;;;;;;;;;5032003;28;20041;-79
2023/08/20 05:10:24;;;;;;;17.77;13.63;;;;;;;;;;5034073;28;20096;-79
2023/08/20 05:12:51;;;;;;;18.88;13.77;;;;;;;;;;5033245;28;20484;-79
2023/08/20 05:15:17;;;;;;;18.13;13.27;;;;;;;;;;5016838;28;20045;-79
2023/08/20 05:17:43;;;;;;;19.27;14.48;;;;;;;;;;5033203;28;20473;-79
2023/08/20 05:20:10;;;;;;;17.33;13.27;;;;;;;;;;5016707;28;20087;-79
2023/08/20 05:22:36;;;;;;;16.83;13.70;;;;;;;;;;5033060;28;20041;-79
2023/08/20 05:25:02;;;;;;;18.02;16.13;;;;;;;;;;5032661;28;20048;-79
2023/08/20 05:27:28;;;;;;;15.55;13.07;;;;;;;;;;5033158;28;20053;-79
2023/08/20 05:29:54;;;;;;;17.70;13.52;;;;;;;;;;5032954;28;20041;-79
2023/08/20 05:32:20;;;;;;;14.95;13.55;;;;;;;;;;5016547;28;20041;-79
2023/08/20 05:34:46;;;;;;;16.73;13.32;;;;;;;;;;5032844;28;20055;-79
2023/08/20 05:37:12;;;;;;;22.83;18.83;;;;;;;;;;5032317;28;20095;-79
2023/08/20 05:39:41;;;;;;;16.08;14.38;;;;;;;;;;5016377;28;20045;-79
2023/08/20 05:42:07;;;;;;;17.92;14.02;;;;;;;;;;5032830;28;20103;-79
2023/08/20 05:44:33;;;;;;;15.30;13.90;;;;;;;;;;5032567;28;20048;-79
2023/08/20 05:47:00;;;;;;;16.45;13.90;;;;;;;;;;5032720;28;20044;-79
2023/08/20 05:49:27;;;;;;;18.63;14.15;;;;;;;;;;5032679;28;20432;-79
2023/08/20 05:51:53;;;;;;;17.17;13.73;;;;;;;;;;5032540;28;20042;-79
2023/08/20 05:54:19;;;;;;;17.42;14.95;;;;;;;;;;5032331;28;20123;-79
2023/08/20 05:56:45;;;;;;;16.38;14.57;;;;;;;;;;5032655;28;20041;-79
2023/08/20 05:59:11;;;;;;;15.80;14.23;;;;;;;;;;5032437;28;20060;-80
2023/08/20 06:01:37;;;;;;;16.42;14.68;;;;;;;;;;5032644;28;20045;-79
2023/08/20 06:04:04;;;;;;;18.05;16.10;;;;;;;;;;5032498;28;20465;-79
2023/08/20 06:06:30;;;;;;;17.50;15.63;;;;;;;;;;5032389;28;20132;-79
2023/08/20 06:08:56;;;;;;;21.48;16.45;;;;;;;;;;5015510;28;20045;-79
2023/08/20 06:11:22;;;;;;;17.83;15.23;;;;;;;;;;5016503;28;20389;-79
2023/08/20 06:13:48;;;;;;;19.35;15.18;;;;;;;;;;5032584;28;20052;-79
2023/08/20 06:16:14;;;;;;;16.77;14.88;;;;;;;;;;5016128;28;20545;-80
2023/08/20 06:18:40;;;;;;;21.55;15.63;;;;;;;;;;5033751;28;20048;-79
2023/08/20 06:21:06;;;;;;;15.45;13.65;;;;;;;;;;5036419;28;20095;-79
2023/08/20 06:23:32;;;;;;;15.75;13.45;;;;;;;;;;5036159;28;20508;-80
2023/08/20 06:25:58;;;;;;;18.98;13.95;;;;;;;;;;5036592;28;20049;-80
2023/08/20 06:28:24;;;;;;;14.77;13.23;;;;;;;;;;5036447;28;20125;-79
2023/08/20 06:30:50;;;;;;;14.73;11.98;;;;;;;;;;5037236;28;20052;-80
2023/08/20 06:33:16;;;;;;;16.80;13.32;;;;;;;;;;5036087;28;20045;-80
2023/08/20 06:35:43;;;;;;;15.20;11.88;;;;;;;;;;5036142;28;20132;-80
2023/08/20 06:38:09;;;;;;;20.15;12.57;;;;;;;;;;5035644;28;20092;-80
2023/08/20 06:40:35;;;;;;;14.50;12.27;;;;;;;;;;5036093;28;20535;-80
2023/08/20 06:43:01;;;;;;;14.38;10.23;;;;;;;;;;5036208;28;20083;-80
2023/08/20 06:45:27;;;;;;;13.20;10.93;;;;;;;;;;5035568;28;20033;-80
2023/08/20 06:47:53;;;;;;;17.48;10.93;;;;;;;;;;5035777;28;20041;-79
2023/08/20 06:50:19;;;;;;;15.73;10.45;;;;;;;;;;5035788;28;20045;-80
2023/08/20 06:52:45;;;;;;;10.95;9.35;;;;;;;;;;5035833;28;20045;-80
2023/08/20 06:55:11;;;;;;;13.57;9.52;;;;;;;;;;5035590;28;20465;-80
2023/08/20 06:57:37;;;;;;;13.48;8.68;;;;;;;;;;5035864;28;20041;-80
2023/08/20 07:00:04;;;;;;;11.77;8.52;;;;;;;;;;5035599;28;20057;-80
2023/08/20 07:02:31;;;;;;;11.02;7.07;;;;;;;;;;5035733;28;20060;-80
2023/08/20 07:04:57;;;;;;;9.02;6.70;;;;;;;;;;5035220;28;20037;-80
2023/08/20 07:07:23;;;;;;;10.55;6.75;;;;;;;;;;5034945;28;20147;-80
2023/08/20 07:09:49;;;;;;;12.15;7.28;;;;;;;;;;5035544;28;20041;-80
2023/08/20 07:12:16;;;;;;;12.38;7.97;;;;;;;;;;5035490;28;20095;-80
2023/08/20 07:14:42;;;;;;;9.10;6.97;;;;;;;;;;5035748;28;20116;-80
2023/08/20 07:17:08;;;;;;;12.32;7.05;;;;;;;;;;5035432;28;20046;-80
2023/08/20 07:19:34;;;;;;;12.85;7.05;;;;;;;;;;5035297;28;20050;-80
2023/08/20 07:22:00;;;;;;;10.65;6.70;;;;;;;;;;5034870;28;20445;-80
2023/08/20 07:24:27;;;;;;;9.35;6.15;;;;;;;;;;5035139;28;20038;-80
2023/08/20 07:26:58;;;;;;;11.63;5.95;;;;;;;;;;5035360;28;20120;-80
2023/08/20 07:29:25;;;;;;;10.98;6.90;;;;;;;;;;5034702;28;20500;-80
2023/08/20 07:31:51;;;;;;;10.07;6.35;;;;;;;;;;5034096;28;20038;-80
2023/08/20 07:34:17;;;;;;;14.20;6.22;;;;;;;;;;5034949;28;20552;-80
2023/08/20 07:36:43;;;;;;;12.27;5.68;;;;;;;;;;5035054;28;20049;-80
2023/08/20 07:39:09;;;;;;;9.40;6.93;;;;;;;;;;5034710;28;20068;-80
2023/08/20 07:41:35;;;;;;;11.63;5.72;;;;;;;;;;5035062;28;20037;-80
2023/08/20 07:44:01;;;;;;;10.23;6.20;;;;;;;;;;5034488;28;20473;-80
2023/08/20 07:46:27;;;;;;;10.23;5.50;;;;;;;;;;5034626;28;20049;-80
2023/08/20 07:48:54;;;;;;;10.77;4.97;;;;;;;;;;5018202;28;20037;-80
2023/08/20 07:51:20;;;;;;;12.73;5.38;;;;;;;;;;5034788;28;20052;-80
2023/08/20 07:53:46;;;;;;;8.93;4.90;;;;;;;;;;5034799;28;20057;-80
2023/08/20 07:56:12;;;;;;;10.70;4.28;;;;;;;;;;5034693;28;20045;-80
2023/08/20 07:58:38;;;;;;;9.43;4.32;;;;;;;;;;5034697;28;20049;-80
2023/08/20 08:01:04;;;;;;;10.07;3.75;;;;;;;;;;5034048;28;20060;-80
2023/08/20 08:03:30;;;;;;;7.70;4.07;;;;;;;;;;5034250;28;20049;-80
2023/08/20 08:05:57;;;;;;;9.20;4.45;;;;;;;;;;5034513;28;20477;-80
2023/08/20 08:08:23;;;;;;;10.18;4.13;;;;;;;;;;5034260;28;20088;-80
2023/08/20 08:10:49;;;;;;;7.35;4.07;;;;;;;;;;5034467;28;20038;-79
2023/08/20 08:13:19;;;;;;;8.02;3.50;;;;;;;;;;5034404;28;20052;-80
2023/08/20 08:15:45;;;;;;;10.02;2.97;;;;;;;;;;5034197;28;20041;-80
2023/08/20 08:18:12;;;;;;;9.18;2.58;;;;;;;;;;5034168;28;20087;-80
2023/08/20 08:20:38;;;;;;;5.53;2.20;;;;;;;;;;5035112;28;20049;-79
2023/08/20 08:23:04;;;;;;;12.15;2.30;;;;;;;;;;5035219;28;20045;-79
2023/08/20 08:25:30;;;;;;;6.57;2.20;;;;;;;;;;5034218;28;20045;-80
2023/08/20 08:27:56;;;;;;;7.30;2.30;;;;;;;;;;5034170;28;20041;-79
2023/08/20 08:30:23;;;;;;;11.18;1.45;;;;;;;;;;5033897;28;20052;-80
2023/08/20 08:32:49;;;;;;;8.35;1.38;;;;;;;;;;5033836;28;20096;-80
2023/08/20 08:35:15;;;;;;;5.53;0.93;;;;;;;;;;5034025;28;20052;-80
2023/08/20 08:37:41;;;;;;;7.75;1.63;;;;;;;;;;5033281;28;20037;-80
2023/08/20 08:40:08;;;;;;;9.23;1.75;;;;;;;;;;5033829;28;20091;-80
2023/08/20 08:42:34;;;;;;;3.63;1.10;;;;;;;;;;5033428;28;20500;-80
2023/08/20 08:45:00;;;;;;;6.00;0.75;;;;;;;;;;5033530;28;20077;-80
2023/08/20 08:47:28;;;;;;;5.68;0.60;;;;;;;;;;5033263;28;20413;-80
2023/08/20 08:49:57;;;;;;;5.82;0.73;;;;;;;;;;5033614;28;20053;-79
2023/08/20 08:52:23;;;;;;;3.40;0.65;;;;;;;;;;5033651;28;20085;-80
2023/08/20 08:54:50;;;;;;;5.97;0.90;;;;;;;;;;5033681;28;20346;-80
2023/08/20 08:57:16;;;;;;;3.97;0.65;;;;;;;;;;5033303;28;20060;-80
2023/08/20 08:59:43;;;;;;;5.43;0.77;;;;;;;;;;5033078;28;20046;-80
2023/08/20 09:02:10;;;;;;;5.50;0.75;;;;;;;;;;5034425;28;20088;-80
2023/08/20 09:04:40;;;;;;;4.72;0.50;;;;;;;;;;5033432;28;20064;-80
2023/08/20 09:07:06;;;;;;;4.90;0.50;;;;;;;;;;5033565;28;20385;-80
2023/08/20 09:09:32;;;;;;;5.72;0.63;;;;;;;;;;5032956;28;20081;-79
2023/08/20 09:11:58;;;;;;;4.90;0.50;;;;;;;;;;5033154;28;20041;-79
2023/08/20 09:14:28;;;;;;;3.33;0.60;;;;;;;;;;5033027;28;20099;-80
2023/08/20 09:16:55;;;;;;;5.00;0.50;;;;;;;;;;5033341;28;20033;-80
2023/08/20 09:19:21;;;;;;;6.20;0.60;;;;;;;;;;5033041;28;20057;-79
2023/08/20 09:21:48;;;;;;;2.22;0.40;;;;;;;;;;5033112;28;20045;-80
2023/08/20 09:24:14;;;;;;;5.10;0.63;;;;;;;;;;5033259;28;20064;-80
2023/08/20 09:26:45;;;;;;;3.65;0.43;;;;;;;;;;5016708;28;20044;-80
2023/08/20 09:29:11;;;;;;;2.50;0.40;;;;;;;;;;5032857;28;20041;-80
2023/08/20 09:31:38;;;;;;;3.75;0.65;;;;;;;;;;5032844;28;20045;-80
2023/08/20 09:34:04;;;;;;;4.05;0.40;;;;;;;;;;5033139;28;20041;-80
2023/08/20 09:36:31;;;;;;;3.20;0.50;;;;;;;;;;5032949;28;20045;-80
2023/08/20 09:38:57;;;;;;;3.00;0.40;;;;;;;;;;5032592;28;20049;-80
2023/08/20 09:41:23;;;;;;;3.75;0.40;;;;;;;;;;5032600;28;20049;-80
2023/08/20 09:43:51;;;;;;;3.90;0.30;;;;;;;;;;5032561;28;20053;-80
2023/08/20 09:46:18;;;;;;;1.75;0.30;;;;;;;;;;5033154;28;20355;-80
2023/08/20 09:48:46;;;;;;;2.20;0.30;;;;;;;;;;5033084;28;20087;-80
2023/08/20 09:51:14;;;;;;;2.65;0.30;;;;;;;;;;5032632;28;20551;-79
2023/08/20 09:53:45;;;;;;;2.67;0.30;;;;;;;;;;5032117;28;20496;-80
2023/08/20 09:56:31;;;;;;;3.00;0.40;;;;;;;;;;5032537;28;20088;-80
2023/08/20 09:58:58;;;;;;;5.28;0.70;;;;;;;;;;5034144;28;20356;-80
2023/08/20 10:01:26;;;;;;;3.40;0.45;;;;;;;;;;5036295;28;20052;-80
2023/08/20 10:03:52;;;;;;;3.20;0.40;;;;;;;;;;5019118;28;20084;-80
2023/08/20 10:06:19;;;;;;;2.47;0.50;;;;;;;;;;5035693;28;20068;-80
2023/08/20 10:08:46;;;;;;;3.70;0.40;;;;;;;;;;5052869;28;20057;-80
2023/08/20 10:11:12;;;;;;;4.05;0.50;;;;;;;;;;5036329;28;20040;-80
2023/08/20 10:13:39;;;;;;;3.40;0.32;;;;;;;;;;5035829;28;20041;-79
2023/08/20 10:16:05;;;;;;;1.60;0.30;;;;;;;;;;5035823;28;20120;-79
2023/08/20 10:18:31;;;;;;;4.88;0.40;;;;;;;;;;5003087;28;20056;-79
2023/08/20 10:21:00;;;;;;;2.30;0.30;;;;;;;;;;5035771;28;20048;-80
2023/08/20 10:23:26;;;;;;;4.20;0.50;;;;;;;;;;5019427;28;20041;-80
2023/08/20 10:25:53;;;;;;;2.53;0.35;;;;;;;;;;5035477;28;20510;-79
2023/08/20 10:28:23;;;;;;;4.65;0.40;;;;;;;;;;5019289;28;20068;-79
2023/08/20 10:31:09;;;;;;;2.83;0.45;;;;;;;;;;5035589;28;20040;-79
2023/08/20 10:33:36;;;;;;;2.72;0.43;;;;;;;;;;5035530;28;20473;-80
2023/08/20 10:36:17;;;;;;;3.65;0.32;;;;;;;;;;5035901;28;20388;-80
2023/08/20 10:38:45;;;;;;;3.45;0.30;;;;;;;;;;5035167;28;20366;-79
2023/08/20 10:41:12;;;;;;;3.53;0.45;;;;;;;;;;5053407;28;20048;-80
2023/08/20 10:43:47;;;;;;;1.92;0.20;;;;;;;;;;5035458;28;20045;-79
2023/08/20 10:46:19;;;;;;;4.53;0.40;;;;;;;;;;5035353;28;20049;-80
2023/08/20 10:48:50;;;;;;;1.95;0.30;;;;;;;;;;5035562;28;20453;-80
2023/08/20 10:51:24;;;;;;;1.38;0.28;;;;;;;;;;5053000;28;20056;-80
2023/08/20 10:54:03;;;;;;;2.22;0.30;;;;;;;;;;5035324;28;20091;-80
2023/08/20 10:56:38;;;;;;;3.33;0.30;;;;;;;;;;5035113;28;20053;-80
2023/08/20 10:59:15;;;;;;;3.03;0.20;;;;;;;;;;5035205;28;20565;-80
2023/08/20 11:01:43;;;;;;;2.80;0.30;;;;;;;;;;5035932;28;20041;-80
2023/08/20 11:04:09;;;;;;;4.60;0.32;;;;;;;;;;5035847;28;20040;-80
2023/08/20 11:06:35;;;;;;;2.65;0.32;;;;;;;;;;5039034;28;20447;-80
2023/08/20 11:09:05;;;;;;;4.20;0.35;;;;;;;;;;5021882;28;20055;-80
2023/08/20 11:11:32;;;;;;;1.98;0.30;;;;;;;;;;5039118;28;20428;-79
2023/08/20 11:14:05;;;;;;;1.67;0.20;;;;;;;;;;5038825;28;20049;-80
2023/08/20 11:16:31;;;;;;;4.07;0.40;;;;;;;;;;5039093;28;20084;-79
2023/08/20 11:18:57;;;;;;;2.65;0.20;;;;;;;;;;5022308;28;20048;-80
2023/08/20 11:21:23;;;;;;;1.92;0.30;;;;;;;;;;5038652;28;20122;-79
2023/08/20 11:23:50;;;;;;;1.63;0.20;;;;;;;;;;5038498;28;20095;-80
2023/08/20 11:26:16;;;;;;;2.28;0.20;;;;;;;;;;5038909;28;20059;-80
2023/08/20 11:28:49;;;;;;;0.90;0.20;;;;;;;;;;5038599;28;20056;-80
2023/08/20 11:31:15;;;;;;;2.22;0.20;;;;;;;;;;5022487;28;20056;-80
2023/08/20 11:33:41;;;;;;;2.63;0.40;;;;;;;;;;5038486;28;20090;-80
2023/08/20 11:36:07;;;;;;;1.92;0.10;;;;;;;;;;5038284;28;20093;-80
2023/08/20 11:38:33;;;;;;;1.70;0.10;;;;;;;;;;5037813;28;20469;-80
2023/08/20 11:40:59;;;;;;;0.80;0.10;;;;;;;;;;5021988;28;20126;-80
2023/08/20 11:43:27;;;;;;;0.93;0.20;;;;;;;;;;5021871;28;20041;-80
2023/08/20 11:45:54;;;;;;;0.55;0.10;;;;;;;;;;5037921;28;20041;-80
2023/08/20 11:48:21;;;;;;;0.90;0.20;;;;;;;;;;5005306;28;20049;-80
2023/08/20 11:50:47;;;;;;;1.05;0.30;;;;;;;;;;5038067;28;20045;-80
2023/08/20 11:53:13;;;;;;;2.67;0.30;;;;;;;;;;5056213;28;20047;-80
2023/08/20 11:55:41;;;;;;;1.85;0.13;;;;;;;;;;5022080;28;20037;-80
2023/08/20 11:58:10;;;;;;;1.40;0.40;;;;;;;;;;5038098;28;20045;-80
2023/08/20 12:00:36;;;;;;;1.40;0.10;;;;;;;;;;5055442;28;20053;-80
2023/08/20 12:03:03;;;;;;;1.42;0.10;;;;;;;;;;5037938;28;20465;-80
2023/08/20 12:05:30;;;;;;;1.33;0.15;;;;;;;;;;5037488;28;20048;-80
2023/08/20 12:08:00;;;;;;;1.85;0.10;;;;;;;;;;5037185;28;20385;-80
2023/08/20 12:10:27;;;;;;;0.70;0.10;;;;;;;;;;5037948;28;20179;-80
2023/08/20 12:12:53;;;;;;;0.50;0.10;;;;;;;;;;5037663;28;20151;-80
2023/08/20 12:15:19;;;;;;;0.22;0.10;;;;;;;;;;5021155;28;20041;-80
2023/08/20 12:18:04;;;;;;;1.98;0.30;;;;;;;;;;5037114;28;20134;-80
2023/08/20 12:20:31;;;;;;;2.80;0.20;;;;;;;;;;5037854;28;20040;-80
2023/08/20 12:23:02;;;;;;;1.13;0.20;;;;;;;;;;5037504;28;20041;-80
2023/08/20 12:25:30;;;;;;;1.20;0.10;;;;;;;;;;5020905;28;20049;-80
2023/08/20 12:27:56;;;;;;;0.57;0.08;;;;;;;;;;5037497;28;20045;-80
2023/08/20 12:30:22;;;;;;;1.70;0.10;;;;;;;;;;5021091;28;20037;-80
2023/08/20 12:32:49;;;;;;;2.30;0.10;;;;;;;;;;5037448;28;20048;-80
2023/08/20 12:35:15;;;;;;;0.60;0.10;;;;;;;;;;5037484;28;20075;-80
2023/08/20 12:37:41;;;;;;;1.23;0.13;;;;;;;;;;5037304;28;20044;-80
2023/08/20 12:40:10;;;;;;;0.45;0.10;;;;;;;;;;5020862;28;20048;-80
2023/08/20 12:42:38;;;;;;;0.80;0.10;;;;;;;;;;5037278;28;20041;-80
2023/08/20 12:45:04;;;;;;;1.25;0.10;;;;;;;;;;5036595;28;20041;-80
2023/08/20 12:47:30;;;;;;;1.38;0.10;;;;;;;;;;5054734;28;20044;-79
2023/08/20 12:49:57;;;;;;;0.90;0.10;;;;;;;;;;5037089;28;20480;-80
2023/08/20 12:52:23;;;;;;;1.40;0.10;;;;;;;;;;5020575;28;20063;-80
2023/08/20 12:54:49;;;;;;;1.38;0.20;;;;;;;;;;5037120;28;20098;-80
2023/08/20 12:57:15;;;;;;;1.50;0.10;;;;;;;;;;5036850;28;20063;-80
2023/08/20 12:59:42;;;;;;;1.10;0.17;;;;;;;;;;5036393;28;20123;-80
2023/08/20 13:02:08;;;;;;;2.45;0.20;;;;;;;;;;5036644;28;20130;-80
2023/08/20 13:04:34;;;;;;;2.25;0.30;;;;;;;;;;5020239;28;20373;-80
2023/08/20 13:07:01;;;;;;;1.38;0.30;;;;;;;;;;5036772;28;20041;-80
2023/08/20 13:09:28;;;;;;;2.90;0.30;;;;;;;;;;5020028;28;20468;-80
2023/08/20 13:11:54;;;;;;;1.45;0.20;;;;;;;;;;5036731;28;20037;-80
2023/08/20 13:14:20;;;;;;;1.38;0.20;;;;;;;;;;5036319;28;20048;-80
2023/08/20 13:16:47;;;;;;;1.25;0.20;;;;;;;;;;5036614;28;20036;-80
2023/08/20 13:19:13;;;;;;;1.55;0.20;;;;;;;;;;5020298;28;20036;-80
2023/08/20 13:21:39;;;;;;;2.45;0.20;;;;;;;;;;5036409;28;20076;-80
2023/08/20 13:24:05;;;;;;;1.60;0.30;;;;;;;;;;5020086;28;20071;-80
2023/08/20 13:26:31;;;;;;;1.25;0.20;;;;;;;;;;5036419;28;20041;-80
2023/08/20 13:28:57;;;;;;;3.00;0.30;;;;;;;;;;5018960;28;20140;-80
2023/08/20 13:31:24;;;;;;;1.92;0.20;;;;;;;;;;5036465;28;20465;-80
2023/08/20 13:33:50;;;;;;;0.90;0.20;;;;;;;;;;5036198;28;20503;-80
2023/08/20 13:36:16;;;;;;;3.03;0.20;;;;;;;;;;5036648;28;20385;-80
2023/08/20 13:38:42;;;;;;;2.00;0.22;;;;;;;;;;5019397;28;20132;-80
2023/08/20 13:41:09;;;;;;;1.80;0.35;;;;;;;;;;5036128;28;20060;-81
2023/08/20 13:43:35;;;;;;;1.85;0.20;;;;;;;;;;5035851;28;20472;-80
2023/08/20 13:46:02;;;;;;;2.90;0.20;;;;;;;;;;5035833;28;20044;-80
2023/08/20 13:48:28;;;;;;;1.63;0.25;;;;;;;;;;5036216;28;20053;-80
2023/08/20 13:50:54;;;;;;;4.22;0.30;;;;;;;;;;5036117;28;20045;-80
2023/08/20 13:53:20;;;;;;;3.15;0.30;;;;;;;;;;5035914;28;20044;-80
2023/08/20 13:55:46;;;;;;;2.35;0.20;;;;;;;;;;5036104;28;20047;-81
2023/08/20 13:58:12;;;;;;;1.50;0.20;;;;;;;;;;5036000;28;20045;-80
2023/08/20 14:00:38;;;;;;;2.33;0.25;;;;;;;;;;5032402;28;20519;-80
2023/08/20 14:03:04;;;;;;;2.33;0.25;;;;;;;;;;5016236;28;20111;-80
2023/08/20 14:05:30;;;;;;;1.80;0.40;;;;;;;;;;5032399;28;20041;-80
2023/08/20 14:07:57;;;;;;;1.58;0.20;;;;;;;;;;5032085;28;20481;-80
2023/08/20 14:10:23;;;;;;;3.40;0.20;;;;;;;;;;5032608;28;20132;-81
2023/08/20 14:12:49;;;;;;;1.80;0.20;;;;;;;;;;5032529;28;20412;-80
2023/08/20 14:15:15;;;;;;;2.78;0.30;;;;;;;;;;5032400;28;20049;-80
2023/08/20 14:17:41;;;;;;;1.83;0.20;;;;;;;;;;5032518;28;20444;-80
2023/08/20 14:20:08;;;;;;;4.10;0.28;;;;;;;;;;5032379;28;20124;-80
2023/08/20 14:22:34;;;;;;;1.60;0.20;;;;;;;;;;5032562;28;20038;-80
2023/08/20 14:25:00;;;;;;;3.05;0.30;;;;;;;;;;5033345;28;20037;-80
2023/08/20 14:27:26;;;;;;;1.23;0.22;;;;;;;;;;5032226;28;20049;-80
2023/08/20 14:29:52;;;;;;;2.55;0.30;;;;;;;;;;5032415;28;20041;-80
2023/08/20 14:32:18;;;;;;;1.92;0.20;;;;;;;;;;5032849;28;20045;-80